createdAt,value
2017-09-15T00:00:05.050Z,53
2017-09-15T00:02:05.832Z,53
2017-09-15T00:04:05.676Z,53
2017-09-15T00:06:05.920Z,53
2017-09-15T00:08:08.243Z,52.9
2017-09-15T00:10:05.978Z,52.9
2017-09-15T00:12:05.835Z,52.9
2017-09-15T00:14:05.549Z,52.9
2017-09-15T00:16:05.628Z,53
2017-09-15T00:18:05.617Z,53
2017-09-15T00:20:05.358Z,53
2017-09-15T00:22:12.831Z,53
2017-09-15T00:24:05.532Z,52.9
2017-09-15T00:26:05.219Z,53
2017-09-15T00:28:11.144Z,53
2017-09-15T00:30:05.885Z,53
2017-09-15T00:32:05.640Z,52.7
2017-09-15T00:34:05.505Z,52.9
2017-09-15T00:36:05.291Z,52.9
2017-09-15T00:38:05.963Z,52.7
2017-09-15T00:40:05.691Z,53
2017-09-15T00:42:05.382Z,52.9
2017-09-15T00:44:05.227Z,53
2017-09-15T00:46:06.096Z,52.9
2017-09-15T00:48:05.884Z,52.7
2017-09-15T00:50:05.611Z,52.9
2017-09-15T00:52:08.174Z,52.7
2017-09-15T00:54:05.954Z,52.6
2017-09-15T00:56:05.681Z,52.6
2017-09-15T00:58:06.159Z,52.9
2017-09-15T01:00:05.960Z,52.7
2017-09-15T01:02:05.822Z,52.7
2017-09-15T01:04:05.595Z,52.7
2017-09-15T01:06:05.881Z,52.6
2017-09-15T01:08:05.609Z,52.7
2017-09-15T01:10:07.872Z,52.6
2017-09-15T01:12:05.583Z,52.6
2017-09-15T01:14:05.348Z,52.9
2017-09-15T01:16:05.157Z,52.7
2017-09-15T01:18:07.597Z,52.7
2017-09-15T01:20:05.816Z,52.6
2017-09-15T01:22:05.788Z,52.9
2017-09-15T01:24:05.568Z,52.6
2017-09-15T01:26:05.223Z,52.7
2017-09-15T01:28:05.923Z,52.6
2017-09-15T01:30:05.663Z,52.6
2017-09-15T01:32:05.508Z,52.8
2017-09-15T01:34:05.598Z,52.6
2017-09-15T01:36:05.394Z,52.6
2017-09-15T01:38:05.069Z,52.8
2017-09-15T01:40:13.679Z,52.6
2017-09-15T01:42:07.912Z,52.6
2017-09-15T01:44:05.646Z,52.6
2017-09-15T01:46:08.090Z,52.6
2017-09-15T01:48:06.185Z,52.6
2017-09-15T01:50:05.873Z,52.6
2017-09-15T01:52:08.251Z,52.6
2017-09-15T01:54:06.004Z,52.6
2017-09-15T01:56:05.727Z,52.8
2017-09-15T01:58:05.465Z,52.6
2017-09-15T02:00:05.128Z,52.6
2017-09-15T02:02:05.861Z,52.6
2017-09-15T02:04:05.437Z,52.6
2017-09-15T02:06:05.178Z,52.6
2017-09-15T02:08:05.524Z,52.5
2017-09-15T02:10:08.648Z,52.6
2017-09-15T02:12:05.343Z,52.8
2017-09-15T02:14:05.122Z,52.6
2017-09-15T02:16:06.030Z,52.8
2017-09-15T02:18:06.071Z,52.8
2017-09-15T02:20:05.912Z,52.6
2017-09-15T02:22:08.625Z,52.8
2017-09-15T02:24:05.344Z,52.6
2017-09-15T02:26:10.115Z,52.8
2017-09-15T02:28:05.895Z,52.6
2017-09-15T02:30:05.220Z,52.8
2017-09-15T02:32:13.589Z,52.8
2017-09-15T02:34:05.429Z,52.6
2017-09-15T02:36:05.392Z,52.6
2017-09-15T02:38:05.074Z,52.6
2017-09-15T02:40:05.937Z,52.8
2017-09-15T02:42:05.727Z,52.6
2017-09-15T02:44:05.519Z,52.8
2017-09-15T02:46:05.442Z,52.6
2017-09-15T02:48:05.116Z,52.5
2017-09-15T02:50:05.887Z,52.5
2017-09-15T02:52:05.608Z,52.5
2017-09-15T02:54:05.326Z,52.5
2017-09-15T02:56:05.001Z,52.5
2017-09-15T02:58:05.792Z,52.5
2017-09-15T03:00:05.214Z,52.5
2017-09-15T03:02:08.476Z,52.7
2017-09-15T03:04:10.365Z,52.7
2017-09-15T03:06:05.094Z,52.7
2017-09-15T03:08:08.509Z,52.5
2017-09-15T03:10:07.900Z,52.7
2017-09-15T03:12:08.121Z,52.5
2017-09-15T03:14:08.383Z,52.5
2017-09-15T03:16:05.266Z,52.5
2017-09-15T03:18:05.234Z,52.4
2017-09-15T03:20:11.016Z,52.5
2017-09-15T03:22:05.850Z,52.5
2017-09-15T03:24:08.063Z,52.5
2017-09-15T03:26:05.745Z,52.5
2017-09-15T03:28:05.491Z,52.7
2017-09-15T03:30:05.788Z,52.4
2017-09-15T03:32:05.483Z,52.4
2017-09-15T03:34:05.201Z,52.4
2017-09-15T03:36:05.416Z,52.4
2017-09-15T03:38:05.286Z,52.4
2017-09-15T03:40:06.345Z,52.4
2017-09-15T03:42:05.151Z,52.3
2017-09-15T03:44:08.401Z,52.1
2017-09-15T03:46:05.217Z,52.4
2017-09-15T03:48:05.992Z,52.1
2017-09-15T03:50:05.240Z,52.1
2017-09-15T03:52:06.093Z,52.1
2017-09-15T03:54:08.345Z,52.1
2017-09-15T03:56:05.809Z,52.2
2017-09-15T03:58:08.017Z,52.1
2017-09-15T04:00:05.710Z,52.1
2017-09-15T04:02:05.462Z,52.1
2017-09-15T04:04:05.325Z,52.1
2017-09-15T04:06:05.027Z,52.1
2017-09-15T04:08:05.787Z,52.1
2017-09-15T04:10:05.492Z,52.1
2017-09-15T04:12:05.755Z,52.1
2017-09-15T04:14:06.099Z,52.1
2017-09-15T04:16:05.841Z,52.2
2017-09-15T04:18:05.755Z,52.1
2017-09-15T04:20:05.453Z,52
2017-09-15T04:22:07.953Z,52.1
2017-09-15T04:24:05.669Z,52.1
2017-09-15T04:26:05.448Z,52.1
2017-09-15T04:28:11.535Z,52
2017-09-15T04:30:11.470Z,52
2017-09-15T04:32:05.811Z,52.5
2017-09-15T04:34:05.682Z,52
2017-09-15T04:36:05.393Z,52
2017-09-15T04:38:05.094Z,52
2017-09-15T04:40:05.929Z,52
2017-09-15T04:42:05.698Z,52
2017-09-15T04:44:05.444Z,52
2017-09-15T04:46:05.301Z,52
2017-09-15T04:48:06.050Z,52
2017-09-15T04:50:08.313Z,52
2017-09-15T04:52:05.118Z,52
2017-09-15T04:54:05.849Z,52
2017-09-15T04:56:10.573Z,51.9
2017-09-15T04:58:10.557Z,52
2017-09-15T05:00:06.028Z,51.7
2017-09-15T05:02:05.765Z,52
2017-09-15T05:04:05.495Z,52
2017-09-15T05:06:13.358Z,51.7
2017-09-15T05:08:05.083Z,51.7
2017-09-15T05:10:05.412Z,51.8
2017-09-15T05:12:05.145Z,51.8
2017-09-15T05:14:10.913Z,51.7
2017-09-15T05:16:05.769Z,51.7
2017-09-15T05:18:05.652Z,51.7
2017-09-15T05:20:07.888Z,51.7
2017-09-15T05:22:05.799Z,51.7
2017-09-15T05:24:08.043Z,52
2017-09-15T05:26:05.757Z,51.7
2017-09-15T05:28:06.101Z,51.7
2017-09-15T05:30:05.397Z,51.7
2017-09-15T05:32:07.669Z,51.7
2017-09-15T05:34:08.239Z,51.7
2017-09-15T05:36:08.496Z,51.6
2017-09-15T05:38:10.252Z,51.7
2017-09-15T05:40:06.147Z,51.6
2017-09-15T05:42:05.357Z,51.6
2017-09-15T05:44:05.110Z,51.6
2017-09-15T05:46:05.842Z,51.6
2017-09-15T05:48:05.723Z,51.6
2017-09-15T05:50:05.510Z,51.7
2017-09-15T05:52:05.358Z,51.8
2017-09-15T05:54:05.098Z,51.9
2017-09-15T05:56:10.837Z,52.1
2017-09-15T05:58:05.759Z,51.8
2017-09-15T06:00:06.533Z,52
2017-09-15T06:02:07.619Z,51.8
2017-09-15T06:04:06.011Z,52
2017-09-15T06:06:12.084Z,52.1
2017-09-15T06:08:05.208Z,52.1
2017-09-15T06:10:05.576Z,52.1
2017-09-15T06:12:08.431Z,52.3
2017-09-15T06:14:05.159Z,52.4
2017-09-15T06:16:08.478Z,52.3
2017-09-15T06:18:13.219Z,52.2
2017-09-15T06:20:05.720Z,52.5
2017-09-15T06:22:07.083Z,52.4
2017-09-15T06:24:06.385Z,52.5
2017-09-15T06:26:08.242Z,52.6
2017-09-15T06:28:06.093Z,52.6
2017-09-15T06:30:09.564Z,52.6
2017-09-15T06:32:05.562Z,52.4
2017-09-15T06:34:05.497Z,52.6
2017-09-15T06:36:05.516Z,52.6
2017-09-15T06:38:05.192Z,52.6
2017-09-15T06:40:06.058Z,52.6
2017-09-15T06:42:05.998Z,52.6
2017-09-15T06:44:05.694Z,52.6
2017-09-15T06:46:05.402Z,52.6
2017-09-15T06:48:05.076Z,52.5
2017-09-15T06:50:08.327Z,52.6
2017-09-15T06:52:05.712Z,52.6
2017-09-15T06:54:06.293Z,52.5
2017-09-15T06:56:11.048Z,52.9
2017-09-15T06:58:05.792Z,52.9
2017-09-15T07:00:12.648Z,52.8
2017-09-15T07:02:05.439Z,52.8
2017-09-15T07:04:05.898Z,52.6
2017-09-15T07:06:06.522Z,52.6
2017-09-15T07:08:05.540Z,52.6
2017-09-15T07:10:05.351Z,52.9
2017-09-15T07:12:07.870Z,52.7
2017-09-15T07:14:05.600Z,52.7
2017-09-15T07:16:07.973Z,52.7
2017-09-15T07:18:08.441Z,52.7
2017-09-15T07:20:05.158Z,52.7
2017-09-15T07:22:11.356Z,52.7
2017-09-15T07:24:05.134Z,52.7
2017-09-15T07:26:05.405Z,52.7
2017-09-15T07:28:07.764Z,52.7
2017-09-15T07:30:05.428Z,52.7
2017-09-15T07:32:07.644Z,52.7
2017-09-15T07:34:05.527Z,52.6
2017-09-15T07:36:05.747Z,52.6
2017-09-15T07:38:05.977Z,52.7
2017-09-15T07:40:05.828Z,52.7
2017-09-15T07:42:05.579Z,52.7
2017-09-15T07:44:13.343Z,52.7
2017-09-15T07:46:07.609Z,52.7
2017-09-15T07:48:10.369Z,52.6
2017-09-15T07:50:05.605Z,52.6
2017-09-15T07:52:05.651Z,52.6
2017-09-15T07:54:05.401Z,52.6
2017-09-15T07:56:05.155Z,52.8
2017-09-15T07:58:08.507Z,52.5
2017-09-15T08:00:07.758Z,52.5
2017-09-15T08:02:05.530Z,52.5
2017-09-15T08:04:05.545Z,52.5
2017-09-15T08:06:05.226Z,52.5
2017-09-15T08:08:05.885Z,52.5
2017-09-15T08:10:05.706Z,52.6
2017-09-15T08:12:05.470Z,52.7
2017-09-15T08:14:07.800Z,52.8
2017-09-15T08:16:08.601Z,52.9
2017-09-15T08:18:08.006Z,52.9
2017-09-15T08:20:05.912Z,52.9
2017-09-15T08:22:05.651Z,53
2017-09-15T08:24:05.367Z,53
2017-09-15T08:26:10.213Z,52
2017-09-15T08:28:05.857Z,52.2
2017-09-15T08:30:08.067Z,52.4
2017-09-15T08:32:08.516Z,52.2
2017-09-15T08:34:05.388Z,52.2
2017-09-15T08:36:05.156Z,52.1
2017-09-15T08:38:06.088Z,52.1
2017-09-15T08:40:06.183Z,52.1
2017-09-15T08:42:05.969Z,52
2017-09-15T08:44:10.957Z,52
2017-09-15T08:46:05.486Z,51.9
2017-09-15T08:48:07.742Z,51.8
2017-09-15T08:50:05.660Z,51.9
2017-09-15T08:52:05.527Z,51.8
2017-09-15T08:54:10.917Z,51.7
2017-09-15T08:56:08.165Z,51.7
2017-09-15T08:58:07.047Z,51.7
2017-09-15T09:00:08.474Z,51.7
2017-09-15T09:02:07.786Z,51.6
2017-09-15T09:04:05.528Z,51.6
2017-09-15T09:06:05.330Z,51.6
2017-09-15T09:08:07.613Z,51.8
2017-09-15T09:10:07.946Z,51.8
2017-09-15T09:12:08.214Z,51.8
2017-09-15T09:14:05.911Z,51.8
2017-09-15T09:16:05.631Z,51.8
2017-09-15T09:18:05.583Z,51.8
2017-09-15T09:20:05.247Z,51.8
2017-09-15T09:22:06.033Z,51.8
2017-09-15T09:24:05.746Z,51.8
2017-09-15T09:26:13.585Z,52
2017-09-15T09:28:05.507Z,52
2017-09-15T09:30:05.247Z,52.3
2017-09-15T09:32:05.501Z,52.3
2017-09-15T09:34:05.301Z,52.3
2017-09-15T09:36:05.604Z,52.5
2017-09-15T09:38:05.789Z,52.5
2017-09-15T09:40:07.890Z,52.7
2017-09-15T09:42:06.588Z,52.7
2017-09-15T09:44:08.711Z,53.2
2017-09-15T09:46:05.747Z,53.2
2017-09-15T09:48:06.052Z,53.4
2017-09-15T09:50:08.258Z,53.7
2017-09-15T09:52:13.446Z,53.7
2017-09-15T09:54:11.215Z,53.9
2017-09-15T09:56:10.144Z,53.9
2017-09-15T09:58:11.263Z,53.8
2017-09-15T10:00:07.758Z,53.8
2017-09-15T10:02:07.950Z,53.6
2017-09-15T10:04:08.002Z,53.7
2017-09-15T10:06:08.223Z,53.6
2017-09-15T10:08:07.688Z,53.6
2017-09-15T10:10:05.765Z,53.6
2017-09-15T10:12:05.445Z,53.7
2017-09-15T10:14:07.675Z,53.6
2017-09-15T10:16:05.534Z,53.5
2017-09-15T10:18:05.634Z,53.8
2017-09-15T10:20:08.291Z,53.6
2017-09-15T10:22:08.681Z,53.6
2017-09-15T10:24:05.910Z,53.6
2017-09-15T10:26:05.601Z,53.6
2017-09-15T10:28:05.832Z,53.6
2017-09-15T10:30:18.220Z,53.6
2017-09-15T10:32:05.996Z,53.7
2017-09-15T10:34:05.745Z,53.7
2017-09-15T10:36:05.520Z,53.7
2017-09-15T10:38:05.780Z,53.7
2017-09-15T10:40:05.492Z,53.7
2017-09-15T10:42:05.215Z,53.5
2017-09-15T10:44:06.229Z,53.5
2017-09-15T10:46:07.847Z,53.7
2017-09-15T10:48:05.588Z,53.7
2017-09-15T10:50:05.297Z,53.5
2017-09-15T10:52:05.687Z,53.5
2017-09-15T10:54:05.450Z,53.5
2017-09-15T10:56:05.154Z,53.5
2017-09-15T10:58:05.275Z,53.5
2017-09-15T11:00:05.986Z,53.6
2017-09-15T11:02:07.011Z,53.6
2017-09-15T11:04:07.863Z,53.6
2017-09-15T11:06:05.949Z,53.4
2017-09-15T11:08:06.096Z,53.7
2017-09-15T11:10:05.732Z,53.7
2017-09-15T11:12:05.125Z,53.4
2017-09-15T11:14:05.880Z,53.4
2017-09-15T11:16:05.626Z,53.5
2017-09-15T11:18:05.702Z,53.4
2017-09-15T11:20:07.989Z,53.5
2017-09-15T11:22:12.834Z,53.5
2017-09-15T11:24:05.845Z,53.5
2017-09-15T11:26:05.614Z,54.3
2017-09-15T11:28:05.516Z,54.6
2017-09-15T11:30:05.236Z,54.7
2017-09-15T11:32:05.920Z,54.6
2017-09-15T11:34:05.820Z,54.7
2017-09-15T11:36:05.031Z,54.6
2017-09-15T11:38:05.769Z,55
2017-09-15T11:40:05.635Z,54.5
2017-09-15T11:42:05.382Z,54.5
2017-09-15T11:44:07.847Z,54.8
2017-09-15T11:46:05.732Z,54.7
2017-09-15T11:48:05.449Z,55.7
2017-09-15T11:50:07.680Z,56.6
2017-09-15T11:52:10.772Z,56.3
2017-09-15T11:54:06.905Z,56.4
2017-09-15T11:56:05.906Z,56.3
2017-09-15T11:58:10.813Z,56.7
2017-09-15T12:00:05.557Z,56.7
2017-09-15T12:02:06.275Z,56.7
2017-09-15T12:04:07.433Z,55.9
2017-09-15T12:06:05.114Z,55.4
2017-09-15T12:08:10.870Z,54.1
2017-09-15T12:10:05.436Z,54.1
2017-09-15T12:12:12.504Z,53.4
2017-09-15T12:14:10.346Z,53.4
2017-09-15T12:16:05.312Z,53.4
2017-09-15T12:18:06.302Z,52.9
2017-09-15T12:20:07.127Z,52.6
2017-09-15T12:22:07.677Z,52.5
2017-09-15T12:24:05.945Z,52.2
2017-09-15T12:26:05.196Z,51.9
2017-09-15T12:28:06.054Z,52
2017-09-15T12:30:05.878Z,51.8
2017-09-15T12:32:05.588Z,51.4
2017-09-15T12:34:06.423Z,51.4
2017-09-15T12:36:05.148Z,51.3
2017-09-15T12:38:05.849Z,50.6
2017-09-15T12:40:05.299Z,50.4
2017-09-15T12:42:07.747Z,50.9
2017-09-15T12:44:05.486Z,50.9
2017-09-15T12:46:05.276Z,50.6
2017-09-15T12:48:06.044Z,50.5
2017-09-15T12:50:08.335Z,50.6
2017-09-15T12:52:10.418Z,50.8
2017-09-15T12:54:08.197Z,50.8
2017-09-15T12:56:08.455Z,50.6
2017-09-15T12:58:05.527Z,50.6
2017-09-15T13:00:08.520Z,50.5
2017-09-15T13:02:05.962Z,50.4
2017-09-15T13:04:05.671Z,50.7
2017-09-15T13:06:05.893Z,50.7
2017-09-15T13:08:05.595Z,50.4
2017-09-15T13:10:05.467Z,50.3
2017-09-15T13:12:05.151Z,50.4
2017-09-15T13:14:05.238Z,50.7
2017-09-15T13:16:08.695Z,50.7
2017-09-15T13:18:05.559Z,50.6
2017-09-15T13:20:12.831Z,50.9
2017-09-15T13:22:05.681Z,51
2017-09-15T13:24:13.045Z,51.1
2017-09-15T13:26:05.313Z,51.2
2017-09-15T13:28:06.186Z,51.3
2017-09-15T13:30:08.475Z,50.6
2017-09-15T13:32:10.406Z,50.6
2017-09-15T13:34:05.314Z,50.6
2017-09-15T13:36:06.826Z,50.8
2017-09-15T13:38:08.229Z,51
2017-09-15T13:40:05.924Z,50.9
2017-09-15T13:42:05.615Z,50.5
2017-09-15T13:44:08.192Z,50.7
2017-09-15T13:46:07.905Z,50.6
2017-09-15T13:48:08.034Z,50.5
2017-09-15T13:50:05.579Z,50.5
2017-09-15T13:52:05.704Z,50.5
2017-09-15T13:54:05.415Z,50
2017-09-15T13:56:05.110Z,50.1
2017-09-15T13:58:05.884Z,49.9
2017-09-15T14:00:05.563Z,50.2
2017-09-15T14:02:05.270Z,49.9
2017-09-15T14:04:05.367Z,50
2017-09-15T14:06:07.264Z,50.4
2017-09-15T14:08:05.480Z,50.5
2017-09-15T14:10:07.977Z,50.3
2017-09-15T14:12:05.949Z,50.3
2017-09-15T14:14:05.705Z,50.2
2017-09-15T14:16:06.074Z,50.1
2017-09-15T14:18:06.022Z,50.3
2017-09-15T14:20:05.940Z,50.3
2017-09-15T14:22:13.421Z,50
2017-09-15T14:24:05.158Z,50
2017-09-15T14:26:05.905Z,50.3
2017-09-15T14:28:05.465Z,50.4
2017-09-15T14:30:05.184Z,50.6
2017-09-15T14:32:10.920Z,50.3
2017-09-15T14:34:05.964Z,50.3
2017-09-15T14:36:10.258Z,50.1
2017-09-15T14:38:06.029Z,50.4
2017-09-15T14:40:05.779Z,50.6
2017-09-15T14:42:05.453Z,50.9
2017-09-15T14:44:05.726Z,50.9
2017-09-15T14:46:05.583Z,51.1
2017-09-15T14:48:08.013Z,51
2017-09-15T14:50:05.947Z,50.8
2017-09-15T14:52:10.122Z,51
2017-09-15T14:54:07.566Z,51.1
2017-09-15T14:56:05.898Z,51.1
2017-09-15T14:58:06.480Z,50.6
2017-09-15T15:00:05.251Z,50.9
2017-09-15T15:02:05.905Z,50.8
2017-09-15T15:04:08.897Z,50.9
2017-09-15T15:06:05.917Z,50.9
2017-09-15T15:08:08.202Z,50.9
2017-09-15T15:10:05.958Z,50.9
2017-09-15T15:12:05.653Z,50.6
2017-09-15T15:14:05.411Z,51.2
2017-09-15T15:16:05.243Z,51.1
2017-09-15T15:18:05.121Z,51.3
2017-09-15T15:20:05.067Z,51.3
2017-09-15T15:22:05.330Z,51.6
2017-09-15T15:24:05.013Z,51.7
2017-09-15T15:26:10.768Z,51.8
2017-09-15T15:28:05.875Z,51.8
2017-09-15T15:30:07.734Z,52
2017-09-15T15:32:05.622Z,52.3
2017-09-15T15:34:05.549Z,52.4
2017-09-15T15:36:05.239Z,52.4
2017-09-15T15:38:08.525Z,52.5
2017-09-15T15:40:05.823Z,52.5
2017-09-15T15:42:05.585Z,52.5
2017-09-15T15:44:05.289Z,52.8
2017-09-15T15:46:07.242Z,52.8
2017-09-15T15:48:05.075Z,52.8
2017-09-15T15:50:05.772Z,52.8
2017-09-15T15:52:05.742Z,52.6
2017-09-15T15:54:05.166Z,52.9
2017-09-15T15:56:05.612Z,52.8
2017-09-15T15:58:08.316Z,52.8
2017-09-15T16:00:04.981Z,52.8
2017-09-15T16:02:05.674Z,52.8
2017-09-15T16:04:05.470Z,52.7
2017-09-15T16:06:07.678Z,52.7
2017-09-15T16:08:05.372Z,52.7
2017-09-15T16:10:07.644Z,52.6
2017-09-15T16:12:05.582Z,52.6
2017-09-15T16:14:07.822Z,52.6
2017-09-15T16:16:06.260Z,52.4
2017-09-15T16:18:05.174Z,52.4
2017-09-15T16:20:06.737Z,52.6
2017-09-15T16:22:05.539Z,52.5
2017-09-15T16:24:05.763Z,52.2
2017-09-15T16:26:05.586Z,52.5
2017-09-15T16:28:08.253Z,52.4
2017-09-15T16:30:05.189Z,52.5
2017-09-15T16:32:08.472Z,52.4
2017-09-15T16:34:05.712Z,52.1
2017-09-15T16:36:05.436Z,52.1
2017-09-15T16:38:05.163Z,52.1
2017-09-15T16:40:12.381Z,52.2
2017-09-15T16:42:07.673Z,52.1
2017-09-15T16:44:06.365Z,52.1
2017-09-15T16:46:07.715Z,52.1
2017-09-15T16:48:05.436Z,52.1
2017-09-15T16:50:05.144Z,52.1
2017-09-15T16:52:05.898Z,52.1
2017-09-15T16:54:05.617Z,52.1
2017-09-15T16:56:05.854Z,52.1
2017-09-15T16:58:05.669Z,52.1
2017-09-15T17:00:05.768Z,52.1
2017-09-15T17:02:07.977Z,52.1
2017-09-15T17:04:05.915Z,52.1
2017-09-15T17:06:10.928Z,52.1
2017-09-15T17:08:05.636Z,52.1
2017-09-15T17:10:06.040Z,52.1
2017-09-15T17:12:05.752Z,52.1
2017-09-15T17:14:08.009Z,52.1
2017-09-15T17:16:05.398Z,52.1
2017-09-15T17:18:05.279Z,52.1
2017-09-15T17:20:05.982Z,52
2017-09-15T17:22:05.338Z,52
2017-09-15T17:24:05.030Z,52
2017-09-15T17:26:05.713Z,52
2017-09-15T17:28:05.546Z,52
2017-09-15T17:30:05.767Z,52
2017-09-15T17:32:05.086Z,52
2017-09-15T17:34:08.352Z,51.9
2017-09-15T17:36:05.335Z,51.9
2017-09-15T17:38:12.886Z,51.9
2017-09-15T17:40:05.776Z,51.9
2017-09-15T17:42:05.015Z,51.9
2017-09-15T17:44:07.797Z,51.9
2017-09-15T17:46:05.052Z,51.9
2017-09-15T17:48:05.769Z,51.9
2017-09-15T17:50:05.471Z,51.8
2017-09-15T17:52:05.225Z,51.8
2017-09-15T17:54:05.876Z,51.8
2017-09-15T17:56:07.619Z,51.8
2017-09-15T17:58:15.964Z,51.8
2017-09-15T18:00:05.656Z,51.8
2017-09-15T18:02:05.407Z,51.8
2017-09-15T18:04:05.293Z,51.8
2017-09-15T18:06:06.113Z,51.8
2017-09-15T18:08:05.917Z,51.8
2017-09-15T18:10:06.098Z,51.8
2017-09-15T18:12:07.824Z,51.7
2017-09-15T18:14:05.631Z,51.8
2017-09-15T18:16:05.324Z,51.7
2017-09-15T18:18:07.750Z,51.7
2017-09-15T18:20:08.197Z,51.7
2017-09-15T18:22:06.098Z,51.7
2017-09-15T18:24:06.978Z,51.7
2017-09-15T18:26:05.973Z,51.7
2017-09-15T18:28:05.865Z,51.7
2017-09-15T18:30:05.563Z,51.7
2017-09-15T18:32:07.980Z,51.7
2017-09-15T18:34:05.298Z,51.7
2017-09-15T18:36:18.370Z,51.6
2017-09-15T18:38:05.635Z,51.6
2017-09-15T18:40:06.086Z,51.6
2017-09-15T18:42:05.888Z,51.6
2017-09-15T18:44:05.609Z,51.6
2017-09-15T18:46:05.393Z,51.6
2017-09-15T18:48:05.120Z,51.6
2017-09-15T18:50:10.898Z,51.3
2017-09-15T18:52:05.296Z,51.6
2017-09-15T18:54:05.970Z,51.6
2017-09-15T18:56:05.715Z,51.6
2017-09-15T18:58:05.585Z,51.4
2017-09-15T19:00:05.279Z,51.3
2017-09-15T19:02:08.032Z,51.3
2017-09-15T19:04:08.635Z,50.9
2017-09-15T19:06:08.436Z,51
2017-09-15T19:08:05.344Z,51
2017-09-15T19:10:05.607Z,51
2017-09-15T19:12:12.912Z,51.1
2017-09-15T19:14:05.738Z,51.1
2017-09-15T19:16:05.993Z,51
2017-09-15T19:18:05.895Z,51.3
2017-09-15T19:20:10.723Z,51.4
2017-09-15T19:22:05.776Z,51.3
2017-09-15T19:24:05.690Z,51.3
2017-09-15T19:26:10.477Z,51.3
2017-09-15T19:28:05.764Z,51.3
2017-09-15T19:30:05.471Z,51.3
2017-09-15T19:32:05.252Z,51.3
2017-09-15T19:34:15.320Z,51.3
2017-09-15T19:36:05.710Z,51.3
2017-09-15T19:38:05.431Z,51.4
2017-09-15T19:40:08.754Z,51.4
2017-09-15T19:42:05.423Z,51.4
2017-09-15T19:44:05.110Z,51.4
2017-09-15T19:46:08.407Z,51.4
2017-09-15T19:48:05.138Z,51.4
2017-09-15T19:50:05.862Z,51.5
2017-09-15T19:52:05.788Z,51.5
2017-09-15T19:54:05.511Z,51.2
2017-09-15T19:56:08.294Z,51.1
2017-09-15T19:58:11.443Z,51.3
2017-09-15T20:00:17.814Z,51.2
2017-09-15T20:02:10.646Z,51.5
2017-09-15T20:04:05.313Z,51.5
2017-09-15T20:06:05.056Z,51.4
2017-09-15T20:08:05.804Z,51.4
2017-09-15T20:10:05.708Z,51.2
2017-09-15T20:12:05.640Z,51.2
2017-09-15T20:14:05.359Z,51.5
2017-09-15T20:16:05.178Z,51.2
2017-09-15T20:18:05.180Z,51.2
2017-09-15T20:20:06.303Z,51.3
2017-09-15T20:22:05.616Z,51.3
2017-09-15T20:24:05.863Z,51.2
2017-09-15T20:26:05.604Z,51.3
2017-09-15T20:28:05.490Z,51.3
2017-09-15T20:30:07.754Z,51.3
2017-09-15T20:32:05.536Z,51.3
2017-09-15T20:34:05.378Z,51.3
2017-09-15T20:36:05.669Z,51.4
2017-09-15T20:38:05.478Z,51.4
2017-09-15T20:40:07.909Z,51.4
2017-09-15T20:42:05.909Z,51.4
2017-09-15T20:44:05.788Z,51.3
2017-09-15T20:46:05.193Z,51.3
2017-09-15T20:48:05.890Z,51.4
2017-09-15T20:50:05.589Z,51.3
2017-09-15T20:52:05.474Z,51.3
2017-09-15T20:54:05.188Z,51.4
2017-09-15T20:56:05.918Z,51.3
2017-09-15T20:58:08.512Z,51.3
2017-09-15T21:00:05.576Z,51.2
2017-09-15T21:02:05.804Z,51.1
2017-09-15T21:04:05.676Z,51.3
2017-09-15T21:06:05.405Z,51.3
2017-09-15T21:08:05.132Z,51.2
2017-09-15T21:10:06.066Z,51.3
2017-09-15T21:12:05.811Z,51.3
2017-09-15T21:14:05.722Z,51.2
2017-09-15T21:16:05.594Z,51.2
2017-09-15T21:18:05.498Z,51.3
2017-09-15T21:20:05.233Z,51.2
2017-09-15T21:22:08.297Z,51.1
2017-09-15T21:24:06.010Z,50.9
2017-09-15T21:26:08.213Z,51
2017-09-15T21:28:08.378Z,51.3
2017-09-15T21:30:05.164Z,51
2017-09-15T21:32:10.930Z,50.9
2017-09-15T21:34:08.130Z,51
2017-09-15T21:36:06.022Z,51
2017-09-15T21:38:05.749Z,50.9
2017-09-15T21:40:08.043Z,51
2017-09-15T21:42:08.328Z,51.2
2017-09-15T21:44:05.666Z,51
2017-09-15T21:46:05.524Z,51
2017-09-15T21:48:05.347Z,51
2017-09-15T21:50:05.075Z,50.9
2017-09-15T21:52:05.847Z,50.8
2017-09-15T21:54:05.589Z,51.1
2017-09-15T21:56:05.326Z,50.9
2017-09-15T21:58:05.178Z,50.9
2017-09-15T22:00:08.424Z,50.9
2017-09-15T22:02:05.157Z,51
2017-09-15T22:04:11.067Z,50.8
2017-09-15T22:06:10.784Z,50.9
2017-09-15T22:08:07.722Z,50.9
2017-09-15T22:10:05.498Z,50.9
2017-09-15T22:12:08.249Z,50.9
2017-09-15T22:14:06.008Z,50.8
2017-09-15T22:16:08.314Z,50.9
2017-09-15T22:18:05.222Z,50.9
2017-09-15T22:20:08.545Z,50.9
2017-09-15T22:22:08.183Z,50.9
2017-09-15T22:24:05.977Z,50.9
2017-09-15T22:26:05.725Z,50.7
2017-09-15T22:28:05.661Z,50.8
2017-09-15T22:30:05.376Z,50.9
2017-09-15T22:32:07.638Z,50.9
2017-09-15T22:34:05.555Z,50.9
2017-09-15T22:36:06.143Z,50.7
2017-09-15T22:38:05.867Z,50.9
2017-09-15T22:40:05.118Z,50.8
2017-09-15T22:42:05.813Z,50.8
2017-09-15T22:44:05.507Z,50.8
2017-09-15T22:46:05.368Z,50.7
2017-09-15T22:48:07.663Z,50.8
2017-09-15T22:50:05.348Z,50.8
2017-09-15T22:52:05.910Z,50.9
2017-09-15T22:54:08.149Z,50.8
2017-09-15T22:56:05.819Z,50.8
2017-09-15T22:58:10.893Z,50.7
2017-09-15T23:00:05.604Z,50.7
2017-09-15T23:02:05.349Z,50.7
2017-09-15T23:04:05.091Z,50.7
2017-09-15T23:06:08.351Z,50.7
2017-09-15T23:08:05.140Z,50.7
2017-09-15T23:10:05.987Z,50.6
2017-09-15T23:12:05.219Z,50.5
2017-09-15T23:14:05.885Z,50.7
2017-09-15T23:16:05.981Z,50.6
2017-09-15T23:18:05.858Z,50.4
2017-09-15T23:20:05.541Z,50.6
2017-09-15T23:22:10.445Z,50.5
2017-09-15T23:24:05.212Z,50.5
2017-09-15T23:26:08.506Z,50.5
2017-09-15T23:28:05.808Z,50.2
2017-09-15T23:30:07.583Z,50.4
2017-09-15T23:32:05.313Z,50.4
2017-09-15T23:34:07.680Z,50.5
2017-09-15T23:36:08.003Z,50.2
2017-09-15T23:38:05.660Z,50.2
2017-09-15T23:40:05.460Z,50.5
2017-09-15T23:42:05.189Z,50.2
2017-09-15T23:46:05.916Z,50.4
2017-09-15T23:48:05.107Z,50.4
2017-09-15T23:50:05.811Z,50.2
2017-09-15T23:52:05.638Z,50.2
2017-09-15T23:54:05.324Z,50.2
2017-09-15T23:56:05.703Z,50.2
2017-09-15T23:58:08.029Z,50.2
